Time;durP1;ratioP1;P1;durP2;ratioP2;P2;SDS_P1;SDS_P2;PMS_P1;PMS_P2;Temp;Humidity;BMP_temperature;BMP_pressure;BME280_temperature;BME280_humidity;BME280_pressure;Samples;Min_cycle;Max_cycle;Signal;HPM_P1;HPM_P2
2023/08/04 00:00:52;;;;;;;14.10;2.90;;;;;;;;;;5032758;28;20275;-69
2023/08/04 00:03:17;;;;;;;11.00;2.95;;;;;;;;;;5033867;28;20388;-70
2023/08/04 00:05:43;;;;;;;14.38;3.30;;;;;;;;;;5033022;28;20116;-69
2023/08/04 00:08:08;;;;;;;11.57;3.13;;;;;;;;;;5032715;28;20018;-69
2023/08/04 00:10:33;;;;;;;15.68;3.22;;;;;;;;;;5032480;28;20017;-70
2023/08/04 00:12:58;;;;;;;14.20;3.37;;;;;;;;;;5033786;28;20487;-69
2023/08/04 00:15:23;;;;;;;12.23;2.90;;;;;;;;;;5032460;28;20275;-69
2023/08/04 00:17:49;;;;;;;14.65;3.20;;;;;;;;;;5032432;28;20436;-69
2023/08/04 00:20:14;;;;;;;11.98;3.40;;;;;;;;;;5033718;28;20027;-69
2023/08/04 00:22:39;;;;;;;14.55;2.72;;;;;;;;;;5032328;28;20051;-70
2023/08/04 00:25:05;;;;;;;19.65;2.85;;;;;;;;;;5033516;28;20018;-69
2023/08/04 00:27:30;;;;;;;9.65;2.67;;;;;;;;;;5033581;28;20515;-70
2023/08/04 00:29:55;;;;;;;14.98;2.95;;;;;;;;;;5032672;28;20049;-69
2023/08/04 00:32:21;;;;;;;8.50;2.67;;;;;;;;;;5033519;28;20539;-69
2023/08/04 00:34:46;;;;;;;12.55;2.72;;;;;;;;;;5033517;28;20264;-70
2023/08/04 00:37:12;;;;;;;11.35;2.85;;;;;;;;;;5033486;28;20492;-69
2023/08/04 00:39:37;;;;;;;8.43;2.57;;;;;;;;;;5033410;28;20022;-69
2023/08/04 00:42:02;;;;;;;17.65;3.03;;;;;;;;;;5032133;28;20259;-70
2023/08/04 00:44:27;;;;;;;11.15;2.75;;;;;;;;;;5033455;28;20013;-70
2023/08/04 00:46:53;;;;;;;13.82;2.70;;;;;;;;;;5033307;28;20105;-69
2023/08/04 00:49:18;;;;;;;11.60;2.85;;;;;;;;;;5033221;28;20061;-69
2023/08/04 00:51:44;;;;;;;8.88;3.08;;;;;;;;;;5031907;28;20113;-69
2023/08/04 00:54:10;;;;;;;10.18;2.78;;;;;;;;;;5033261;28;20052;-69
2023/08/04 00:56:36;;;;;;;13.48;2.72;;;;;;;;;;5033135;28;20022;-69
2023/08/04 00:59:01;;;;;;;16.98;3.17;;;;;;;;;;5031847;28;20141;-69
2023/08/04 01:01:27;;;;;;;16.33;2.83;;;;;;;;;;5031964;28;20017;-69
2023/08/04 01:03:53;;;;;;;11.02;2.80;;;;;;;;;;5033005;28;20299;-70
2023/08/04 01:06:28;;;;;;;10.50;2.63;;;;;;;;;;5031695;28;20017;-69
2023/08/04 01:09:09;;;;;;;6.93;2.47;;;;;;;;;;5031751;28;20026;-69
2023/08/04 01:11:39;;;;;;;9.55;2.42;;;;;;;;;;5031690;28;20049;-69
2023/08/04 01:14:05;;;;;;;10.10;2.40;;;;;;;;;;5031716;28;20021;-69
2023/08/04 01:16:30;;;;;;;8.77;3.15;;;;;;;;;;5033005;28;20080;-69
2023/08/04 01:18:59;;;;;;;8.90;2.75;;;;;;;;;;5032786;28;20361;-71
2023/08/04 01:21:24;;;;;;;8.50;2.53;;;;;;;;;;5031851;28;20041;-69
2023/08/04 01:23:49;;;;;;;9.70;2.43;;;;;;;;;;5031631;28;20025;-69
2023/08/04 01:26:14;;;;;;;9.18;2.60;;;;;;;;;;5032728;28;20829;-69
2023/08/04 01:28:40;;;;;;;12.38;2.50;;;;;;;;;;5032788;28;20025;-69
2023/08/04 01:31:05;;;;;;;7.05;2.60;;;;;;;;;;5032760;28;20132;-69
2023/08/04 01:33:31;;;;;;;10.20;2.60;;;;;;;;;;5032834;28;20029;-69
2023/08/04 01:35:56;;;;;;;13.70;2.60;;;;;;;;;;5033047;28;20047;-69
2023/08/04 01:38:21;;;;;;;10.90;2.92;;;;;;;;;;5032777;28;20268;-70
2023/08/04 01:40:46;;;;;;;12.03;2.70;;;;;;;;;;5032887;28;20079;-72
2023/08/04 01:43:11;;;;;;;14.95;2.97;;;;;;;;;;5036584;28;20359;-69
2023/08/04 01:45:37;;;;;;;11.43;2.73;;;;;;;;;;5037010;28;20061;-69
2023/08/04 01:48:02;;;;;;;10.38;2.70;;;;;;;;;;5036609;28;20296;-70
2023/08/04 01:50:27;;;;;;;9.63;2.58;;;;;;;;;;5035329;28;20013;-70
2023/08/04 01:52:54;;;;;;;11.90;2.87;;;;;;;;;;5035136;28;20055;-70
2023/08/04 01:55:19;;;;;;;15.57;2.60;;;;;;;;;;5036389;28;20345;-70
2023/08/04 01:57:44;;;;;;;11.73;3.00;;;;;;;;;;5036237;28;20025;-69
2023/08/04 02:00:10;;;;;;;9.95;2.67;;;;;;;;;;5035060;28;20292;-69
2023/08/04 02:02:36;;;;;;;14.68;3.08;;;;;;;;;;5036287;28;20397;-70
2023/08/04 02:05:01;;;;;;;12.68;3.08;;;;;;;;;;5034884;28;20021;-69
2023/08/04 02:07:26;;;;;;;9.43;3.17;;;;;;;;;;5034848;28;20498;-69
2023/08/04 02:09:52;;;;;;;9.63;2.60;;;;;;;;;;5035958;28;20327;-69
2023/08/04 02:12:18;;;;;;;14.07;3.15;;;;;;;;;;5036139;28;20264;-69
2023/08/04 02:14:43;;;;;;;13.18;3.40;;;;;;;;;;5036144;28;20044;-69
2023/08/04 02:17:08;;;;;;;21.83;3.07;;;;;;;;;;5036001;28;20021;-70
2023/08/04 02:19:34;;;;;;;16.80;3.05;;;;;;;;;;5034691;28;20794;-69
2023/08/04 02:21:59;;;;;;;12.88;3.30;;;;;;;;;;5035888;28;20461;-69
2023/08/04 02:24:24;;;;;;;12.50;3.07;;;;;;;;;;5035825;28;20014;-69
2023/08/04 02:26:49;;;;;;;10.27;3.13;;;;;;;;;;5035856;28;20308;-70
2023/08/04 02:29:14;;;;;;;16.27;3.37;;;;;;;;;;5034403;28;20022;-69
2023/08/04 02:31:40;;;;;;;20.27;3.47;;;;;;;;;;5035789;28;20045;-70
2023/08/04 02:34:06;;;;;;;12.05;3.17;;;;;;;;;;5035880;28;20750;-69
2023/08/04 02:36:31;;;;;;;11.50;3.05;;;;;;;;;;5035763;28;20017;-69
2023/08/04 02:38:56;;;;;;;13.82;3.60;;;;;;;;;;5035719;28;20025;-69
2023/08/04 02:41:22;;;;;;;13.83;3.27;;;;;;;;;;5034500;28;20029;-69
2023/08/04 02:43:47;;;;;;;14.70;3.17;;;;;;;;;;5034451;28;20635;-70
2023/08/04 02:46:12;;;;;;;13.95;2.70;;;;;;;;;;5034015;28;20421;-71
2023/08/04 02:48:37;;;;;;;15.45;3.90;;;;;;;;;;5035504;28;20017;-70
2023/08/04 02:51:07;;;;;;;18.63;3.30;;;;;;;;;;5035376;28;20020;-70
2023/08/04 02:53:33;;;;;;;16.48;3.63;;;;;;;;;;5034474;28;20025;-71
2023/08/04 02:55:58;;;;;;;10.43;2.92;;;;;;;;;;5035344;28;20068;-70
2023/08/04 02:58:24;;;;;;;16.80;3.40;;;;;;;;;;5035258;28;20022;-70
2023/08/04 03:00:49;;;;;;;14.43;3.30;;;;;;;;;;5033964;28;20493;-70
2023/08/04 03:03:15;;;;;;;12.02;3.28;;;;;;;;;;5033987;28;20056;-69
2023/08/04 03:05:40;;;;;;;11.90;3.28;;;;;;;;;;5035079;28;20053;-69
2023/08/04 03:08:05;;;;;;;11.88;3.30;;;;;;;;;;5035092;28;20144;-70
2023/08/04 03:10:31;;;;;;;11.33;3.30;;;;;;;;;;5034892;28;20033;-70
2023/08/04 03:12:56;;;;;;;14.87;3.43;;;;;;;;;;5033767;28;20277;-70
2023/08/04 03:15:21;;;;;;;10.60;3.47;;;;;;;;;;5034977;28;20291;-69
2023/08/04 03:17:46;;;;;;;14.32;3.63;;;;;;;;;;5033716;28;20260;-70
2023/08/04 03:20:11;;;;;;;10.23;3.03;;;;;;;;;;5034818;28;20420;-69
2023/08/04 03:22:37;;;;;;;13.02;3.75;;;;;;;;;;5033479;28;20264;-70
2023/08/04 03:25:02;;;;;;;16.33;3.80;;;;;;;;;;5034618;28;20013;-70
2023/08/04 03:27:27;;;;;;;12.95;3.60;;;;;;;;;;5033476;28;20314;-70
2023/08/04 03:29:52;;;;;;;8.13;3.13;;;;;;;;;;5034432;28;20103;-70
2023/08/04 03:32:18;;;;;;;11.45;3.92;;;;;;;;;;5034508;28;20260;-70
2023/08/04 03:34:43;;;;;;;10.73;3.63;;;;;;;;;;5033342;28;20116;-69
2023/08/04 03:37:08;;;;;;;16.10;3.40;;;;;;;;;;5034637;28;20046;-69
2023/08/04 03:39:34;;;;;;;13.20;3.70;;;;;;;;;;5034446;28;20017;-70
2023/08/04 03:41:59;;;;;;;18.25;3.50;;;;;;;;;;5034398;28;20461;-71
2023/08/04 03:44:24;;;;;;;11.93;3.33;;;;;;;;;;5033133;28;20017;-70
2023/08/04 03:46:49;;;;;;;14.73;3.03;;;;;;;;;;5034227;28;20032;-71
2023/08/04 03:49:14;;;;;;;14.20;3.67;;;;;;;;;;5032953;28;20275;-70
2023/08/04 03:51:40;;;;;;;12.57;3.10;;;;;;;;;;5032978;28;20264;-70
2023/08/04 03:54:05;;;;;;;18.17;4.00;;;;;;;;;;5034076;28;20796;-70
2023/08/04 03:56:30;;;;;;;11.95;3.10;;;;;;;;;;5032880;28;20256;-70
2023/08/04 03:58:56;;;;;;;9.93;3.07;;;;;;;;;;5034032;28;20025;-70
2023/08/04 04:01:21;;;;;;;14.10;3.60;;;;;;;;;;5032854;28;20298;-71
2023/08/04 04:03:46;;;;;;;12.68;3.28;;;;;;;;;;5033942;28;20033;-70
2023/08/04 04:06:11;;;;;;;11.55;3.40;;;;;;;;;;5033969;28;20029;-70
2023/08/04 04:08:37;;;;;;;13.35;3.05;;;;;;;;;;5033903;28;20013;-70
2023/08/04 04:11:02;;;;;;;11.02;3.70;;;;;;;;;;5033808;28;20014;-70
2023/08/04 04:13:28;;;;;;;13.25;3.90;;;;;;;;;;5033740;28;20021;-70
2023/08/04 04:15:53;;;;;;;10.80;3.53;;;;;;;;;;5034044;28;20044;-70
2023/08/04 04:18:18;;;;;;;10.83;3.67;;;;;;;;;;5032605;28;20044;-69
2023/08/04 04:20:43;;;;;;;13.70;3.60;;;;;;;;;;5033738;28;20268;-70
2023/08/04 04:23:08;;;;;;;8.83;3.50;;;;;;;;;;5033685;28;20303;-69
2023/08/04 04:25:34;;;;;;;10.20;3.43;;;;;;;;;;5032285;28;20853;-70
2023/08/04 04:27:59;;;;;;;8.30;3.20;;;;;;;;;;5033714;28;20346;-69
2023/08/04 04:30:24;;;;;;;7.93;2.90;;;;;;;;;;5033362;28;20280;-69
2023/08/04 04:32:49;;;;;;;10.25;3.00;;;;;;;;;;5033546;28;20260;-69
2023/08/04 04:35:15;;;;;;;15.02;3.30;;;;;;;;;;5032281;28;20112;-70
2023/08/04 04:37:40;;;;;;;12.95;3.55;;;;;;;;;;5033568;28;20032;-70
2023/08/04 04:40:06;;;;;;;10.85;3.33;;;;;;;;;;5033395;28;20361;-70
2023/08/04 04:42:34;;;;;;;10.95;3.60;;;;;;;;;;5032124;28;20025;-70
2023/08/04 04:45:00;;;;;;;9.93;3.13;;;;;;;;;;5032066;28;20464;-70
2023/08/04 04:47:25;;;;;;;14.82;3.78;;;;;;;;;;5032247;28;20025;-70
2023/08/04 04:49:50;;;;;;;9.05;3.30;;;;;;;;;;5032075;28;20068;-70
2023/08/04 04:52:28;;;;;;;8.98;3.25;;;;;;;;;;5031995;28;20025;-69
2023/08/04 04:54:53;;;;;;;8.82;3.30;;;;;;;;;;5032010;28;20028;-71
2023/08/04 04:57:18;;;;;;;8.03;3.00;;;;;;;;;;5031932;28;20428;-70
2023/08/04 04:59:44;;;;;;;9.50;3.13;;;;;;;;;;5033259;28;20715;-70
2023/08/04 05:02:09;;;;;;;12.63;3.23;;;;;;;;;;5031838;28;20370;-69
2023/08/04 05:04:34;;;;;;;6.80;2.90;;;;;;;;;;5031833;28;20256;-71
2023/08/04 05:06:59;;;;;;;10.47;3.07;;;;;;;;;;5031790;28;20022;-70
2023/08/04 05:09:24;;;;;;;6.43;3.20;;;;;;;;;;5033087;28;20754;-69
2023/08/04 05:11:50;;;;;;;7.87;3.20;;;;;;;;;;5033115;28;20339;-69
2023/08/04 05:14:15;;;;;;;9.88;3.20;;;;;;;;;;5032956;28;20278;-69
2023/08/04 05:16:42;;;;;;;15.73;3.30;;;;;;;;;;5035060;28;20115;-69
2023/08/04 05:19:07;;;;;;;13.15;3.25;;;;;;;;;;5036058;28;20798;-70
2023/08/04 05:21:32;;;;;;;9.40;2.83;;;;;;;;;;5035762;28;20060;-69
2023/08/04 05:23:57;;;;;;;10.88;3.58;;;;;;;;;;5035792;28;20050;-70
2023/08/04 05:26:23;;;;;;;10.53;3.50;;;;;;;;;;5036994;28;20354;-70
2023/08/04 05:28:48;;;;;;;11.25;3.20;;;;;;;;;;5035628;28;20869;-70
2023/08/04 05:31:13;;;;;;;6.38;3.00;;;;;;;;;;5036797;28;20566;-69
2023/08/04 05:33:38;;;;;;;10.82;3.50;;;;;;;;;;5036625;28;20020;-70
2023/08/04 05:36:04;;;;;;;7.93;3.58;;;;;;;;;;5036839;28;20029;-70
2023/08/04 05:38:29;;;;;;;6.85;3.60;;;;;;;;;;5036921;28;20021;-69
2023/08/04 05:40:58;;;;;;;10.65;3.88;;;;;;;;;;5036746;28;20018;-70
2023/08/04 05:43:23;;;;;;;9.55;3.70;;;;;;;;;;5036616;28;20044;-70
2023/08/04 05:45:49;;;;;;;10.23;3.80;;;;;;;;;;5036625;28;20021;-70
2023/08/04 05:48:14;;;;;;;10.13;3.60;;;;;;;;;;5036563;28;20268;-70
2023/08/04 05:50:40;;;;;;;8.32;3.30;;;;;;;;;;5036744;28;20013;-69
2023/08/04 05:53:05;;;;;;;8.30;3.53;;;;;;;;;;5036478;28;20021;-69
2023/08/04 05:55:30;;;;;;;8.53;3.63;;;;;;;;;;5036544;28;20021;-70
2023/08/04 05:57:56;;;;;;;10.27;3.85;;;;;;;;;;5036535;28;20271;-70
2023/08/04 06:00:21;;;;;;;9.85;3.97;;;;;;;;;;5036350;28;20022;-70
2023/08/04 06:02:46;;;;;;;10.82;3.90;;;;;;;;;;5036356;28;20464;-69
2023/08/04 06:05:12;;;;;;;11.53;3.63;;;;;;;;;;5034995;28;20030;-70
2023/08/04 06:07:37;;;;;;;15.65;4.28;;;;;;;;;;5036371;28;20267;-70
2023/08/04 06:10:03;;;;;;;11.82;3.45;;;;;;;;;;5036087;28;20017;-70
2023/08/04 06:12:28;;;;;;;13.82;3.58;;;;;;;;;;5036062;28;20021;-69
2023/08/04 06:14:54;;;;;;;12.07;3.95;;;;;;;;;;5036110;28;20097;-69
2023/08/04 06:17:19;;;;;;;10.95;3.70;;;;;;;;;;5034786;28;20460;-70
2023/08/04 06:19:44;;;;;;;11.73;3.77;;;;;;;;;;5034802;28;20026;-70
2023/08/04 06:22:09;;;;;;;9.82;3.72;;;;;;;;;;5035945;28;20325;-70
2023/08/04 06:24:35;;;;;;;10.38;3.53;;;;;;;;;;5037597;28;20018;-72
2023/08/04 06:27:00;;;;;;;9.10;3.33;;;;;;;;;;5045382;28;20026;-70
2023/08/04 06:29:25;;;;;;;10.90;3.72;;;;;;;;;;5040409;28;20045;-69
2023/08/04 06:31:50;;;;;;;10.40;3.40;;;;;;;;;;5036057;28;20009;-69
2023/08/04 06:34:16;;;;;;;10.60;3.58;;;;;;;;;;5035928;28;20049;-69
2023/08/04 06:36:44;;;;;;;8.35;3.47;;;;;;;;;;5035774;28;20037;-70
2023/08/04 06:39:09;;;;;;;9.40;3.65;;;;;;;;;;5035655;28;20052;-69
2023/08/04 06:41:35;;;;;;;15.90;3.85;;;;;;;;;;5035895;28;20380;-69
2023/08/04 06:44:00;;;;;;;11.60;3.80;;;;;;;;;;5036077;28;20017;-71
2023/08/04 06:46:25;;;;;;;13.10;4.63;;;;;;;;;;5034096;28;20021;-69
2023/08/04 06:48:50;;;;;;;12.50;4.07;;;;;;;;;;5035551;28;20423;-69
2023/08/04 06:51:16;;;;;;;9.02;3.67;;;;;;;;;;5035295;28;20457;-70
2023/08/04 06:53:41;;;;;;;12.37;3.63;;;;;;;;;;5044357;28;20492;-69
2023/08/04 06:56:06;;;;;;;5.40;2.88;;;;;;;;;;5035308;28;20314;-71
2023/08/04 06:58:31;;;;;;;9.43;2.85;;;;;;;;;;5035448;28;20025;-70
2023/08/04 07:00:56;;;;;;;8.83;3.03;;;;;;;;;;5033797;28;20067;-69
2023/08/04 07:03:22;;;;;;;8.87;2.70;;;;;;;;;;5035456;28;20375;-70
2023/08/04 07:05:47;;;;;;;6.20;2.60;;;;;;;;;;5033968;28;20464;-70
2023/08/04 07:08:12;;;;;;;7.70;2.63;;;;;;;;;;5035262;28;20256;-69
2023/08/04 07:10:37;;;;;;;11.57;3.43;;;;;;;;;;5037001;28;20252;-70
2023/08/04 07:13:03;;;;;;;7.18;2.90;;;;;;;;;;5034151;28;20268;-69
2023/08/04 07:15:28;;;;;;;8.20;2.72;;;;;;;;;;5032873;28;20562;-72
2023/08/04 07:17:53;;;;;;;7.23;2.60;;;;;;;;;;5033478;28;20416;-69
2023/08/04 07:20:18;;;;;;;6.93;2.30;;;;;;;;;;5034231;28;20017;-69
2023/08/04 07:22:43;;;;;;;8.83;2.20;;;;;;;;;;5032495;28;20085;-71
2023/08/04 07:25:09;;;;;;;7.60;2.10;;;;;;;;;;5034164;28;20875;-69
2023/08/04 07:27:34;;;;;;;6.28;2.08;;;;;;;;;;5034441;28;20389;-71
2023/08/04 07:29:59;;;;;;;4.22;1.80;;;;;;;;;;5034005;28;20484;-69
2023/08/04 07:32:24;;;;;;;6.03;1.80;;;;;;;;;;5036777;28;20068;-70
2023/08/04 07:34:50;;;;;;;4.20;2.00;;;;;;;;;;5037740;28;20240;-69
2023/08/04 07:37:15;;;;;;;5.23;1.67;;;;;;;;;;5036896;28;20047;-70
2023/08/04 07:39:40;;;;;;;2.73;1.50;;;;;;;;;;5039812;28;20288;-70
2023/08/04 07:42:05;;;;;;;4.78;1.60;;;;;;;;;;5038077;28;20409;-69
2023/08/04 07:44:33;;;;;;;2.78;1.33;;;;;;;;;;5038042;28;20029;-69
2023/08/04 07:46:59;;;;;;;7.40;1.80;;;;;;;;;;5041065;28;20021;-69
2023/08/04 07:49:24;;;;;;;5.47;1.75;;;;;;;;;;5056265;28;20064;-70
2023/08/04 07:51:49;;;;;;;7.57;1.87;;;;;;;;;;5057185;28;20009;-71
2023/08/04 07:54:14;;;;;;;6.73;1.80;;;;;;;;;;5057320;28;20256;-71
2023/08/04 07:56:39;;;;;;;7.30;1.93;;;;;;;;;;5055798;28;20245;-71
2023/08/04 07:59:05;;;;;;;5.27;1.70;;;;;;;;;;5057724;28;20283;-70
2023/08/04 08:01:30;;;;;;;4.90;1.77;;;;;;;;;;5056529;28;20267;-70
2023/08/04 08:03:55;;;;;;;4.93;1.67;;;;;;;;;;5057591;28;20276;-70
2023/08/04 08:06:20;;;;;;;2.63;1.20;;;;;;;;;;5056523;28;20347;-70
2023/08/04 08:08:48;;;;;;;3.97;1.60;;;;;;;;;;5056515;28;20288;-70
2023/08/04 08:11:14;;;;;;;6.35;1.65;;;;;;;;;;5057196;28;20021;-70
2023/08/04 08:13:39;;;;;;;3.55;1.73;;;;;;;;;;5055780;28;20043;-71
2023/08/04 08:16:11;;;;;;;6.22;1.80;;;;;;;;;;5055961;28;20029;-70
2023/08/04 08:18:36;;;;;;;4.30;1.52;;;;;;;;;;5057178;28;20017;-70
2023/08/04 08:21:08;;;;;;;5.80;1.70;;;;;;;;;;5055556;28;20096;-72
2023/08/04 08:23:34;;;;;;;7.05;2.38;;;;;;;;;;5058618;28;20042;-73
2023/08/04 08:25:59;;;;;;;4.78;1.80;;;;;;;;;;5055407;28;20089;-71
2023/08/04 08:28:25;;;;;;;4.00;1.83;;;;;;;;;;5056525;28;20018;-69
2023/08/04 08:30:50;;;;;;;5.68;1.55;;;;;;;;;;5055622;28;20046;-71
2023/08/04 08:33:15;;;;;;;7.00;2.10;;;;;;;;;;5053787;28;20028;-74
2023/08/04 08:35:40;;;;;;;6.00;1.80;;;;;;;;;;5046866;28;20375;-69
2023/08/04 08:38:05;;;;;;;4.37;1.93;;;;;;;;;;5041525;28;20264;-71
2023/08/04 08:40:31;;;;;;;8.77;2.37;;;;;;;;;;5046866;28;20266;-71
2023/08/04 08:42:57;;;;;;;12.07;2.42;;;;;;;;;;5045340;28;20272;-70
2023/08/04 08:45:25;;;;;;;9.85;2.30;;;;;;;;;;5045101;28;20017;-69
2023/08/04 08:47:50;;;;;;;7.32;2.30;;;;;;;;;;5039047;28;20013;-69
2023/08/04 08:50:17;;;;;;;7.65;1.92;;;;;;;;;;5033515;28;20045;-70
2023/08/04 08:52:44;;;;;;;7.65;2.10;;;;;;;;;;5034973;28;20025;-70
2023/08/04 08:55:09;;;;;;;5.85;1.85;;;;;;;;;;5034677;28;20024;-69
2023/08/04 08:57:35;;;;;;;7.88;2.15;;;;;;;;;;5036786;28;20092;-70
2023/08/04 09:00:02;;;;;;;5.10;1.77;;;;;;;;;;5034695;28;20060;-70
2023/08/04 09:02:27;;;;;;;7.45;1.80;;;;;;;;;;5033136;28;20021;-70
2023/08/04 09:04:54;;;;;;;6.60;1.97;;;;;;;;;;5033894;28;20014;-70
2023/08/04 09:07:21;;;;;;;6.97;1.70;;;;;;;;;;5033689;28;20275;-70
2023/08/04 09:09:46;;;;;;;5.88;1.90;;;;;;;;;;5033364;28;20013;-70
2023/08/04 09:12:12;;;;;;;6.80;1.85;;;;;;;;;;5033439;28;20373;-70
2023/08/04 09:14:47;;;;;;;7.65;1.95;;;;;;;;;;5033328;28;20019;-71
2023/08/04 09:17:27;;;;;;;6.85;2.00;;;;;;;;;;5034704;28;20499;-70
2023/08/04 09:19:52;;;;;;;11.52;2.20;;;;;;;;;;5032260;28;20117;-70
2023/08/04 09:22:17;;;;;;;12.57;2.00;;;;;;;;;;5032099;28;20057;-70
2023/08/04 09:24:51;;;;;;;10.17;2.27;;;;;;;;;;5032973;28;20701;-70
2023/08/04 09:27:37;;;;;;;10.25;2.17;;;;;;;;;;5032946;28;20778;-71
2023/08/04 09:30:03;;;;;;;8.60;2.15;;;;;;;;;;5031777;28;20073;-71
2023/08/04 09:32:29;;;;;;;8.07;1.98;;;;;;;;;;5033162;28;20198;-70
2023/08/04 09:35:04;;;;;;;6.68;1.83;;;;;;;;;;5034034;28;20041;-70
2023/08/04 09:37:33;;;;;;;8.00;2.30;;;;;;;;;;5031952;28;20056;-70
2023/08/04 09:39:59;;;;;;;7.53;2.17;;;;;;;;;;5033575;28;20017;-69
2023/08/04 09:42:24;;;;;;;8.40;1.88;;;;;;;;;;5033224;28;20096;-71
2023/08/04 09:44:51;;;;;;;6.80;1.80;;;;;;;;;;5032812;28;20045;-70
2023/08/04 09:47:17;;;;;;;7.68;1.90;;;;;;;;;;5031982;28;20029;-69
2023/08/04 09:49:42;;;;;;;9.07;2.23;;;;;;;;;;5032777;28;20370;-70
2023/08/04 09:52:07;;;;;;;9.83;2.00;;;;;;;;;;5033823;28;20614;-69
2023/08/04 09:54:32;;;;;;;10.73;2.97;;;;;;;;;;5031736;28;20762;-70
2023/08/04 09:56:58;;;;;;;9.50;2.33;;;;;;;;;;5030759;28;20022;-70
2023/08/04 09:59:23;;;;;;;12.20;2.70;;;;;;;;;;5029304;28;20271;-69
2023/08/04 10:01:49;;;;;;;9.88;2.30;;;;;;;;;;5032026;28;20465;-70
2023/08/04 10:04:14;;;;;;;7.10;2.28;;;;;;;;;;5034646;28;20018;-70
2023/08/04 10:06:39;;;;;;;6.68;2.25;;;;;;;;;;5034188;28;20021;-71
2023/08/04 10:09:04;;;;;;;6.78;2.25;;;;;;;;;;5034493;28;20014;-68
2023/08/04 10:11:30;;;;;;;10.00;2.10;;;;;;;;;;5034836;28;20080;-68
2023/08/04 10:13:56;;;;;;;8.40;1.90;;;;;;;;;;5034845;28;20048;-69
2023/08/04 10:16:34;;;;;;;7.53;1.90;;;;;;;;;;5036365;28;20447;-69
2023/08/04 10:19:02;;;;;;;9.35;1.95;;;;;;;;;;5034700;28;20025;-68
2023/08/04 10:21:33;;;;;;;9.63;1.70;;;;;;;;;;5035949;28;20385;-67
2023/08/04 10:23:59;;;;;;;6.77;1.87;;;;;;;;;;5036034;28;20488;-68
2023/08/04 10:26:24;;;;;;;6.95;1.70;;;;;;;;;;5035758;28;20294;-68
2023/08/04 10:29:10;;;;;;;7.68;1.73;;;;;;;;;;5034663;28;20491;-67
2023/08/04 10:31:41;;;;;;;6.10;1.50;;;;;;;;;;5034102;28;20492;-67
2023/08/04 10:34:16;;;;;;;4.18;1.25;;;;;;;;;;5034356;28;20025;-67
2023/08/04 10:36:53;;;;;;;4.75;1.60;;;;;;;;;;5035617;28;20014;-67
2023/08/04 10:39:26;;;;;;;4.10;1.55;;;;;;;;;;5034847;28;20037;-66
2023/08/04 10:41:51;;;;;;;;;;;;;;;;;;5036101;28;20045;-68
2023/08/04 10:44:16;;;;;;;4.28;1.45;;;;;;;;;;5034274;28;19960;-67
2023/08/04 10:46:42;;;;;;;4.00;1.43;;;;;;;;;;5035690;28;20495;-68
2023/08/04 10:49:08;;;;;;;9.38;1.60;;;;;;;;;;5035487;28;20342;-67
2023/08/04 10:51:34;;;;;;;5.80;1.33;;;;;;;;;;5035295;28;20028;-67
2023/08/04 10:53:59;;;;;;;5.47;1.42;;;;;;;;;;5034015;28;20464;-68
2023/08/04 10:56:25;;;;;;;5.00;1.40;;;;;;;;;;5032652;28;20104;-68
2023/08/04 10:58:50;;;;;;;7.68;1.55;;;;;;;;;;5034123;28;20326;-68
2023/08/04 11:01:15;;;;;;;5.33;1.40;;;;;;;;;;5034096;28;20105;-70
2023/08/04 11:03:46;;;;;;;5.10;1.38;;;;;;;;;;5034850;28;20300;-68
2023/08/04 11:06:12;;;;;;;8.25;1.60;;;;;;;;;;5035000;28;20028;-68
2023/08/04 11:08:37;;;;;;;5.43;1.30;;;;;;;;;;5033827;28;20112;-68
2023/08/04 11:11:02;;;;;;;6.32;1.48;;;;;;;;;;5035125;28;20053;-68
2023/08/04 11:13:27;;;;;;;6.83;1.30;;;;;;;;;;5034208;28;20024;-69
2023/08/04 11:15:53;;;;;;;6.17;1.60;;;;;;;;;;5033712;28;20022;-69
2023/08/04 11:18:23;;;;;;;5.43;1.50;;;;;;;;;;5033631;28;20380;-68
2023/08/04 11:20:48;;;;;;;6.93;1.90;;;;;;;;;;5034824;28;20028;-68
2023/08/04 11:23:14;;;;;;;4.37;1.40;;;;;;;;;;5034800;28;20018;-68
2023/08/04 11:25:39;;;;;;;6.72;1.73;;;;;;;;;;5034662;28;20295;-68
2023/08/04 11:28:05;;;;;;;4.22;1.50;;;;;;;;;;5033398;28;20052;-68
2023/08/04 11:30:31;;;;;;;3.67;1.50;;;;;;;;;;5033493;28;20069;-67
2023/08/04 11:32:56;;;;;;;3.05;1.30;;;;;;;;;;5034835;28;20014;-68
2023/08/04 11:35:22;;;;;;;3.20;1.40;;;;;;;;;;5033441;28;20040;-69
2023/08/04 11:37:47;;;;;;;4.80;1.30;;;;;;;;;;5034721;28;20264;-69
2023/08/04 11:40:19;;;;;;;4.67;1.53;;;;;;;;;;5034551;28;20025;-69
2023/08/04 11:42:45;;;;;;;4.18;1.50;;;;;;;;;;5033149;28;20778;-68
2023/08/04 11:45:10;;;;;;;8.93;2.30;;;;;;;;;;5034375;28;20017;-69
2023/08/04 11:47:35;;;;;;;6.57;1.53;;;;;;;;;;5035173;28;20465;-68
2023/08/04 11:50:02;;;;;;;5.00;1.40;;;;;;;;;;5034552;28;20260;-71
2023/08/04 11:52:28;;;;;;;4.30;1.23;;;;;;;;;;5033213;28;20024;-68
2023/08/04 11:54:54;;;;;;;3.07;1.27;;;;;;;;;;5034288;28;20014;-68
2023/08/04 11:57:20;;;;;;;3.90;1.35;;;;;;;;;;5033114;28;20264;-69
2023/08/04 11:59:46;;;;;;;4.95;1.40;;;;;;;;;;5033633;28;20013;-68
2023/08/04 12:02:11;;;;;;;4.90;1.40;;;;;;;;;;5034480;28;20020;-68
2023/08/04 12:04:36;;;;;;;3.43;1.10;;;;;;;;;;5037321;28;20079;-68
2023/08/04 12:07:03;;;;;;;6.67;1.43;;;;;;;;;;5045578;28;20472;-70
2023/08/04 12:09:28;;;;;;;5.65;1.42;;;;;;;;;;5036392;28;20688;-70
2023/08/04 12:11:53;;;;;;;4.97;1.00;;;;;;;;;;5035355;28;20045;-69
2023/08/04 12:14:20;;;;;;;3.23;1.30;;;;;;;;;;5036957;28;20018;-69
2023/08/04 12:16:49;;;;;;;3.38;1.10;;;;;;;;;;5039014;28;20260;-70
2023/08/04 12:19:14;;;;;;;4.72;1.52;;;;;;;;;;5038970;28;20041;-71
2023/08/04 12:21:39;;;;;;;4.28;1.65;;;;;;;;;;5036107;28;20044;-71
2023/08/04 12:24:04;;;;;;;2.83;1.27;;;;;;;;;;5034874;28;20018;-70
2023/08/04 12:26:30;;;;;;;6.40;1.40;;;;;;;;;;5039908;28;20014;-70
2023/08/04 12:28:55;;;;;;;3.97;1.43;;;;;;;;;;5045485;28;20332;-68
2023/08/04 12:31:20;;;;;;;4.17;1.27;;;;;;;;;;5043030;28;20045;-68
2023/08/04 12:33:45;;;;;;;2.37;1.23;;;;;;;;;;5048781;28;20022;-69
2023/08/04 12:36:10;;;;;;;4.43;1.40;;;;;;;;;;5041477;28;20530;-69
2023/08/04 12:38:36;;;;;;;7.03;1.40;;;;;;;;;;5034515;28;20010;-69
2023/08/04 12:41:01;;;;;;;7.97;1.40;;;;;;;;;;5034871;28;20343;-70
2023/08/04 12:43:26;;;;;;;5.87;1.30;;;;;;;;;;5034727;28;20322;-69
2023/08/04 12:45:51;;;;;;;4.30;1.30;;;;;;;;;;5037143;28;20291;-71
2023/08/04 12:48:16;;;;;;;10.02;1.60;;;;;;;;;;5035168;28;20264;-70
2023/08/04 12:50:42;;;;;;;5.37;1.40;;;;;;;;;;5032817;28;20022;-70
2023/08/04 12:53:07;;;;;;;5.03;1.63;;;;;;;;;;5032553;28;20080;-69
2023/08/04 12:55:32;;;;;;;4.90;1.60;;;;;;;;;;5033360;28;20030;-69
2023/08/04 12:57:57;;;;;;;4.73;1.20;;;;;;;;;;5033575;28;20025;-70
2023/08/04 13:00:22;;;;;;;3.58;1.70;;;;;;;;;;5033295;28;20279;-69
2023/08/04 13:02:48;;;;;;;3.53;1.35;;;;;;;;;;5032256;28;20552;-70
2023/08/04 13:05:13;;;;;;;3.50;1.30;;;;;;;;;;5032088;28;20053;-71
2023/08/04 13:07:38;;;;;;;5.07;1.37;;;;;;;;;;5033108;28;20497;-70
2023/08/04 13:10:04;;;;;;;5.82;1.88;;;;;;;;;;5031941;28;20018;-69
2023/08/04 13:12:29;;;;;;;12.55;1.80;;;;;;;;;;5034166;28;20457;-68
2023/08/04 13:14:54;;;;;;;2.90;1.20;;;;;;;;;;5033680;28;20014;-68
2023/08/04 13:17:19;;;;;;;8.40;1.53;;;;;;;;;;5033245;28;20028;-69
2023/08/04 13:19:46;;;;;;;3.77;1.33;;;;;;;;;;5031794;28;20303;-68
2023/08/04 13:22:12;;;;;;;4.50;1.17;;;;;;;;;;5032750;28;20351;-69
2023/08/04 13:24:37;;;;;;;4.45;1.50;;;;;;;;;;5033096;28;20430;-69
2023/08/04 13:27:05;;;;;;;3.47;1.20;;;;;;;;;;5031694;28;20048;-69
2023/08/04 13:29:30;;;;;;;5.05;1.33;;;;;;;;;;5032848;28;20367;-69
2023/08/04 13:31:55;;;;;;;6.40;1.17;;;;;;;;;;5032924;28;20045;-69
2023/08/04 13:34:20;;;;;;;4.90;1.40;;;;;;;;;;5031966;28;20340;-69
2023/08/04 13:36:45;;;;;;;3.78;1.30;;;;;;;;;;5034348;28;20264;-70
2023/08/04 13:39:11;;;;;;;4.10;1.00;;;;;;;;;;5038591;28;20017;-69
2023/08/04 13:41:36;;;;;;;4.63;1.10;;;;;;;;;;5037730;28;20267;-69
2023/08/04 13:44:01;;;;;;;2.23;1.10;;;;;;;;;;5036854;28;20268;-69
2023/08/04 13:46:26;;;;;;;6.20;1.50;;;;;;;;;;5036912;28;20388;-70
2023/08/04 13:48:52;;;;;;;4.78;1.30;;;;;;;;;;5035430;28;20020;-70
2023/08/04 13:51:17;;;;;;;4.35;1.02;;;;;;;;;;5035394;28;20045;-71
2023/08/04 13:53:42;;;;;;;3.50;1.02;;;;;;;;;;5036544;28;20103;-71
2023/08/04 13:56:07;;;;;;;6.65;1.38;;;;;;;;;;5036214;28;20025;-71
2023/08/04 13:58:32;;;;;;;3.40;1.23;;;;;;;;;;5035978;28;20025;-73
2023/08/04 14:00:59;;;;;;;4.80;1.40;;;;;;;;;;5034003;28;20427;-71
2023/08/04 14:03:24;;;;;;;4.30;1.40;;;;;;;;;;5037627;28;20437;-70
2023/08/04 14:05:59;;;;;;;6.00;1.50;;;;;;;;;;5035645;28;20014;-71
2023/08/04 14:08:24;;;;;;;4.00;1.20;;;;;;;;;;5035404;28;20769;-70
2023/08/04 14:10:50;;;;;;;3.37;1.30;;;;;;;;;;5038252;28;20017;-70
2023/08/04 14:13:15;;;;;;;8.07;1.30;;;;;;;;;;5036269;28;20259;-70
2023/08/04 14:15:40;;;;;;;5.63;1.27;;;;;;;;;;5038640;28;20532;-70
2023/08/04 14:18:05;;;;;;;4.35;1.20;;;;;;;;;;5037069;28;20288;-71
2023/08/04 14:20:30;;;;;;;1.00;0.80;;;;;;;;;;5035808;28;20075;-71
2023/08/04 14:22:56;;;;;;;2.10;1.00;;;;;;;;;;5034226;28;20313;-72
2023/08/04 14:25:21;;;;;;;3.40;0.90;;;;;;;;;;5033903;28;20413;-72
2023/08/04 14:27:46;;;;;;;4.20;1.10;;;;;;;;;;5034202;28;20032;-72
2023/08/04 14:30:11;;;;;;;2.13;0.90;;;;;;;;;;5033090;28;20307;-72